createdAt,value
2018-07-27T06:18:35.747Z,26.30
2018-07-27T06:40:13.342Z,25.70
2018-07-27T06:42:42.418Z,27.00
2018-07-27T06:45:11.497Z,27.40
2018-07-27T06:47:40.547Z,26.70
2018-07-27T06:50:09.615Z,26.90
2018-07-27T06:52:41.027Z,27.00
2018-07-27T06:55:10.215Z,27.20
2018-07-27T06:57:39.277Z,27.40
2018-07-27T07:00:08.396Z,27.60
2018-07-27T07:02:38.445Z,27.70
2018-07-27T07:05:07.707Z,27.90
2018-07-27T07:07:36.769Z,27.60
2018-07-27T07:10:05.900Z,27.80
2018-07-27T07:12:35.012Z,27.80
2018-07-27T07:15:04.959Z,28.00
2018-07-27T07:17:34.198Z,28.20
2018-07-27T07:20:03.300Z,28.50
2018-07-27T07:22:32.385Z,28.50
2018-07-27T07:25:01.476Z,28.60
2018-07-27T07:27:30.675Z,28.30
2018-07-27T07:29:59.808Z,28.30
2018-07-27T07:32:28.914Z,28.50
2018-07-27T07:34:57.982Z,28.80
2018-07-27T07:37:27.074Z,28.90
2018-07-27T07:39:56.202Z,29.00
2018-07-27T07:42:25.302Z,29.20
2018-07-27T07:44:54.402Z,29.00
2018-07-27T07:49:52.194Z,29.50
2018-07-27T07:52:21.252Z,29.80
2018-07-27T07:54:50.339Z,29.90
2018-07-27T07:57:19.432Z,30.30
2018-07-27T07:59:48.524Z,29.60
2018-07-27T08:02:17.615Z,30.00
2018-07-27T08:04:46.699Z,30.20
2018-07-27T08:07:15.788Z,30.00
2018-07-27T08:09:44.947Z,29.80
2018-07-27T08:12:14.016Z,29.70
2018-07-27T08:14:43.176Z,29.60
2018-07-27T08:17:12.290Z,29.80
2018-07-27T08:19:41.336Z,30.00
2018-07-27T08:22:10.438Z,30.20
2018-07-27T08:24:39.505Z,30.20
2018-07-27T08:29:39.436Z,30.60
2018-07-27T08:32:08.556Z,30.60
2018-07-27T08:34:37.626Z,30.40
2018-07-27T08:37:06.881Z,30.80
2018-07-27T08:39:38.215Z,30.80
2018-07-27T08:42:07.251Z,31.20
2018-07-27T08:47:06.400Z,30.60
2018-07-27T08:49:35.438Z,30.40
2018-07-27T08:52:04.582Z,30.40
2018-07-27T08:54:33.672Z,30.50
2018-07-27T08:57:02.761Z,30.70
2018-07-27T08:59:31.835Z,30.80
2018-07-27T09:02:00.915Z,30.60
2018-07-27T09:04:30.057Z,30.80
2018-07-27T09:06:59.121Z,30.30
2018-07-27T09:09:28.185Z,30.40
2018-07-27T09:11:57.286Z,30.50
2018-07-27T09:14:26.331Z,30.60
2018-07-27T09:16:55.411Z,30.60
2018-07-27T09:19:24.488Z,30.80
2018-07-27T09:21:53.535Z,31.20
2018-07-27T09:24:22.726Z,31.10
2018-07-27T09:26:51.669Z,31.20
2018-07-27T09:57:48.835Z,32.30
2018-07-27T10:00:22.093Z,32.60
2018-07-27T10:02:51.226Z,32.80
2018-07-27T10:05:20.339Z,32.70
2018-07-27T10:07:49.393Z,33.10
2018-07-27T10:10:18.471Z,33.30
2018-07-27T10:12:47.632Z,33.20
2018-07-27T10:15:16.710Z,33.60
2018-07-27T10:17:45.783Z,33.90
2018-07-27T10:20:14.890Z,33.70
2018-07-27T10:22:44.183Z,33.80
2018-07-27T10:25:13.247Z,33.80
2018-07-27T10:27:42.310Z,33.90
2018-07-27T10:30:11.408Z,33.90
2018-07-27T10:32:40.509Z,33.60
2018-07-27T10:35:09.565Z,33.70
2018-07-27T10:37:38.646Z,33.70
2018-07-27T10:40:08.651Z,33.90
2018-07-27T10:42:37.715Z,33.90
2018-07-27T10:45:07.117Z,34.50
2018-07-27T10:50:05.680Z,34.50
2018-07-27T10:52:34.729Z,34.80
2018-07-27T10:55:03.793Z,34.50
2018-07-27T10:57:32.907Z,34.60
2018-07-27T11:06:47.131Z,34.90
2018-07-27T11:09:16.191Z,35.20
2018-07-27T11:11:45.233Z,35.00
2018-07-27T11:14:14.323Z,35.20
2018-07-27T11:16:43.409Z,35.30
2018-07-27T11:19:12.498Z,35.40
2018-07-27T11:21:41.619Z,35.10
2018-07-27T11:24:11.701Z,35.00
2018-07-27T11:26:40.763Z,34.70
2018-07-27T11:29:09.980Z,35.20
2018-07-27T11:31:40.132Z,35.70
2018-07-27T11:34:09.318Z,35.60
2018-07-27T11:36:38.413Z,35.60
2018-07-27T11:39:09.230Z,35.50
2018-07-27T11:41:38.505Z,35.90
2018-07-27T11:44:07.571Z,35.90
2018-07-27T11:46:36.658Z,35.70
2018-07-27T11:49:05.810Z,35.80
2018-07-27T11:51:34.928Z,35.30
2018-07-27T11:54:04.004Z,35.70
2018-07-27T11:56:33.104Z,35.90
2018-07-27T11:59:02.162Z,36.20
2018-07-27T12:01:31.358Z,35.80
2018-07-27T12:04:00.420Z,35.80
2018-07-27T12:06:29.504Z,36.00
2018-07-27T12:08:58.602Z,36.40
2018-07-27T12:11:27.678Z,36.50
2018-07-27T12:13:56.842Z,37.00
2018-07-27T12:16:25.849Z,36.50
2018-07-27T12:18:55.037Z,36.30
2018-07-27T12:21:24.148Z,36.50
2018-07-27T12:23:53.179Z,36.70
2018-07-27T12:26:22.316Z,37.10
2018-07-27T12:28:51.689Z,36.70
2018-07-27T12:31:20.763Z,36.80
2018-07-27T12:33:49.820Z,36.40
2018-07-27T12:36:18.856Z,36.30
2018-07-27T12:38:47.904Z,36.50
2018-07-27T12:41:16.955Z,36.60
2018-07-27T12:43:46.058Z,36.70
2018-07-27T12:46:15.194Z,36.70
2018-07-27T12:48:44.265Z,36.90
2018-07-27T12:51:13.394Z,36.60
2018-07-27T12:53:46.094Z,36.50
2018-07-27T12:56:15.154Z,36.90
2018-07-27T12:58:44.214Z,36.90
2018-07-27T13:01:13.323Z,37.00
2018-07-27T13:03:42.631Z,36.50
2018-07-27T13:06:11.693Z,36.60
2018-07-27T13:08:40.772Z,36.50
2018-07-27T13:11:09.852Z,36.30
2018-07-27T13:13:40.148Z,36.60
2018-07-27T13:16:09.825Z,36.70
2018-07-27T13:18:38.895Z,36.60
2018-07-27T13:21:07.983Z,36.80
2018-07-27T13:23:37.783Z,36.80
2018-07-27T13:26:25.815Z,36.50
2018-07-27T13:28:40.579Z,36.40
2018-07-27T13:31:10.476Z,36.50
2018-07-27T13:33:44.038Z,36.40
2018-07-27T13:36:13.139Z,36.60
2018-07-27T13:38:42.189Z,36.60
2018-07-27T13:41:12.780Z,36.50
2018-07-27T13:43:43.273Z,36.50
2018-07-27T13:46:12.362Z,36.30
2018-07-27T13:48:41.520Z,36.10
2018-07-27T13:51:10.638Z,36.50
2018-07-27T13:53:39.694Z,36.60
2018-07-27T13:56:08.745Z,36.60
2018-07-27T13:58:37.818Z,36.70
2018-07-27T14:01:07.043Z,36.20
2018-07-27T14:03:36.147Z,36.40
2018-07-27T14:06:05.286Z,36.50
2018-07-27T14:08:34.343Z,36.50
2018-07-27T14:11:03.413Z,36.10
2018-07-27T14:13:32.591Z,36.40
2018-07-27T14:16:01.672Z,36.50
2018-07-27T14:18:30.780Z,36.60
2018-07-27T14:20:59.842Z,36.40
2018-07-27T14:23:28.931Z,36.80
2018-07-27T14:25:58.000Z,36.80
2018-07-27T14:28:27.082Z,36.90
2018-07-27T14:30:56.143Z,36.80
2018-07-27T14:33:25.207Z,36.10
2018-07-27T14:35:54.309Z,36.00
2018-07-27T14:38:23.345Z,36.00
2018-07-27T14:40:52.427Z,36.00
2018-07-27T14:43:21.483Z,36.40
2018-07-27T14:45:50.575Z,36.70
2018-07-27T14:48:19.885Z,36.30
2018-07-27T14:50:48.968Z,36.50
2018-07-27T15:00:03.190Z,36.40
2018-07-27T15:02:32.270Z,36.00
2018-07-27T15:05:01.392Z,36.30
2018-07-27T15:07:30.463Z,35.80
2018-07-27T15:09:59.518Z,35.90
2018-07-27T15:12:28.655Z,36.20
2018-07-27T15:14:57.730Z,35.90
2018-07-27T15:17:26.853Z,35.90
2018-07-27T15:19:55.921Z,35.80
2018-07-27T15:22:25.063Z,35.60
2018-07-27T15:24:54.149Z,35.50
2018-07-27T15:27:23.222Z,35.50
2018-07-27T15:29:52.294Z,35.30
2018-07-27T15:32:21.354Z,35.20
2018-07-27T15:34:50.407Z,35.10
2018-07-27T15:37:19.499Z,34.80
2018-07-27T15:39:48.597Z,34.80
2018-07-27T15:42:17.667Z,34.80
2018-07-27T15:44:46.782Z,34.70
2018-07-27T15:47:15.859Z,34.70
2018-07-27T15:49:44.906Z,34.70
2018-07-27T15:52:13.954Z,34.70
2018-07-27T15:54:43.045Z,34.60
2018-07-27T15:57:12.171Z,34.50
2018-07-27T15:59:41.279Z,34.50
2018-07-27T16:02:10.490Z,34.40
2018-07-27T16:04:39.554Z,34.40
2018-07-27T16:07:08.635Z,34.30
2018-07-27T16:09:37.691Z,34.40
2018-07-27T16:12:06.875Z,34.30
2018-07-27T16:14:36.052Z,34.40
2018-07-27T16:17:05.118Z,34.40
2018-07-27T16:19:34.203Z,34.30
2018-07-27T16:22:03.309Z,34.30
2018-07-27T16:24:32.450Z,34.30
2018-07-27T16:27:01.543Z,34.30
2018-07-27T16:29:30.674Z,34.30
2018-07-27T16:31:59.741Z,34.40
2018-07-27T16:34:28.959Z,34.30
2018-07-27T16:36:58.029Z,34.40
2018-07-27T16:39:27.097Z,34.30
2018-07-27T16:41:56.159Z,34.40
2018-07-27T16:44:25.301Z,34.40
2018-07-27T16:46:54.447Z,34.40
2018-07-27T16:49:23.498Z,34.30
2018-07-27T16:51:52.576Z,34.30
2018-07-27T16:54:21.672Z,34.40
2018-07-27T16:56:50.728Z,34.30
2018-07-27T16:59:19.791Z,34.50
2018-07-27T17:01:49.455Z,34.40
2018-07-27T17:04:18.630Z,34.40
2018-07-27T17:06:47.907Z,34.50
2018-07-27T17:09:17.032Z,34.60
2018-07-27T17:11:46.066Z,34.60
2018-07-27T17:14:15.145Z,34.90
2018-07-27T17:16:44.220Z,35.20
2018-07-27T17:19:13.301Z,35.40
2018-07-27T17:21:42.363Z,35.30
2018-07-27T17:24:11.412Z,35.20
2018-07-27T17:26:40.484Z,34.90
2018-07-27T17:29:09.557Z,34.90
2018-07-27T17:31:38.706Z,35.00
2018-07-27T17:34:07.791Z,35.00
2018-07-27T17:36:36.904Z,34.90
2018-07-27T17:39:08.687Z,34.50
2018-07-27T17:44:06.702Z,34.20
2018-07-27T17:46:35.767Z,34.10
2018-07-27T17:49:04.853Z,34.10
2018-07-27T17:51:33.906Z,34.10
2018-07-27T17:54:02.989Z,33.90
2018-07-27T17:56:32.091Z,33.90
2018-07-27T17:59:01.306Z,33.90
2018-07-27T18:01:30.361Z,33.90
2018-07-27T18:03:59.423Z,33.80
2018-07-27T18:06:28.535Z,33.80
2018-07-27T18:08:57.596Z,33.80
2018-07-27T18:11:26.687Z,33.80
2018-07-27T18:13:55.724Z,33.80
2018-07-27T18:16:24.838Z,33.80
2018-07-27T18:18:53.946Z,33.60
2018-07-27T18:21:22.979Z,33.60
2018-07-27T18:23:52.045Z,33.70
2018-07-27T18:26:21.149Z,33.60
2018-07-27T18:28:50.423Z,33.50
2018-07-27T18:31:19.487Z,33.40
2018-07-27T18:33:48.578Z,33.30
2018-07-27T18:36:17.721Z,33.20
2018-07-27T18:38:46.776Z,33.10
2018-07-27T18:41:15.867Z,33.00
2018-07-27T18:43:44.934Z,32.90
2018-07-27T18:46:14.088Z,32.80
2018-07-27T18:48:43.263Z,32.80
2018-07-27T18:51:12.348Z,32.80
2018-07-27T18:53:41.397Z,32.80
2018-07-27T18:56:10.776Z,32.70
2018-07-27T18:58:39.820Z,32.70
2018-07-27T19:01:09.217Z,32.60
2018-07-27T19:06:07.071Z,32.40
2018-07-27T19:08:36.148Z,32.30
2018-07-27T19:11:05.252Z,32.10
2018-07-27T19:13:34.313Z,32.10
2018-07-27T19:16:03.419Z,32.00
2018-07-27T19:18:32.503Z,31.90
2018-07-27T19:21:01.582Z,31.80
2018-07-27T19:23:30.710Z,31.70
2018-07-27T19:25:59.840Z,31.50
2018-07-27T19:28:28.904Z,31.40
2018-07-27T19:30:57.965Z,31.40
2018-07-27T19:33:27.120Z,31.30
2018-07-27T19:35:56.236Z,31.20
2018-07-27T19:38:25.307Z,31.00
2018-07-27T19:40:54.349Z,30.80
2018-07-27T19:43:23.414Z,30.90
2018-07-27T19:48:21.185Z,30.90
2018-07-27T19:50:50.439Z,30.80
2018-07-27T19:53:19.494Z,30.60
2018-07-27T19:55:48.542Z,30.50
2018-07-27T19:58:17.604Z,30.50
2018-07-27T20:00:46.700Z,30.50
2018-07-27T20:03:15.828Z,30.40
2018-07-27T20:05:44.939Z,30.50
2018-07-27T20:08:14.027Z,30.30
2018-07-27T20:10:43.155Z,30.30
2018-07-27T20:13:12.259Z,30.20
2018-07-27T20:15:41.297Z,30.20
2018-07-27T20:18:10.430Z,30.20
2018-07-27T20:20:39.819Z,30.20
2018-07-27T20:23:08.998Z,30.10
2018-07-27T20:25:38.054Z,30.00
2018-07-27T20:28:07.144Z,29.90
2018-07-27T20:30:36.240Z,29.70
2018-07-27T20:33:05.604Z,29.50
2018-07-27T20:35:34.757Z,29.60
2018-07-27T20:38:03.954Z,29.70
2018-07-27T20:40:33.035Z,29.60
2018-07-27T20:43:02.189Z,29.50
2018-07-27T20:45:31.317Z,29.40
2018-07-27T20:48:00.412Z,29.40
2018-07-27T20:50:29.575Z,29.40
2018-07-27T20:52:58.735Z,29.40
2018-07-27T20:55:27.816Z,29.50
2018-07-27T20:57:57.006Z,29.40
2018-07-27T21:00:26.067Z,29.40
2018-07-27T21:02:55.118Z,29.40
2018-07-27T21:05:24.179Z,29.30
2018-07-27T21:07:53.255Z,29.40
2018-07-27T21:10:22.307Z,29.40
2018-07-27T21:12:51.356Z,29.30
2018-07-27T21:15:20.402Z,29.40
2018-07-27T21:17:49.441Z,29.10
2018-07-27T21:20:18.487Z,29.10
2018-07-27T21:22:47.655Z,28.10
2018-07-27T21:25:16.695Z,26.90
2018-07-27T21:27:45.774Z,26.60
2018-07-27T21:30:14.925Z,26.20
2018-07-27T21:32:44.112Z,25.80
2018-07-27T21:35:13.224Z,25.70
2018-07-27T21:37:42.279Z,25.50
2018-07-27T21:40:11.402Z,25.40
2018-07-27T21:42:40.472Z,25.30
2018-07-27T21:45:09.550Z,25.10
2018-07-27T21:47:38.631Z,25.00
2018-07-27T21:50:08.043Z,24.70
2018-07-27T21:52:37.445Z,24.60
2018-07-27T21:55:06.494Z,24.30
2018-07-27T21:57:35.611Z,24.20
2018-07-27T22:00:07.499Z,24.10
2018-07-27T22:05:05.395Z,23.90
2018-07-27T22:07:34.477Z,23.90
2018-07-27T22:10:03.589Z,23.80
2018-07-27T22:12:32.693Z,23.60
2018-07-27T22:15:01.883Z,23.40
2018-07-27T22:17:31.071Z,23.20
2018-07-27T22:20:00.126Z,23.10
2018-07-27T22:22:29.203Z,22.90
2018-07-27T22:24:58.304Z,22.90
2018-07-27T22:27:27.431Z,22.70
2018-07-27T22:29:56.487Z,22.60
2018-07-27T22:32:25.601Z,22.60
